createdAt,value
2019-03-27T00:00:52.960Z,103102.09
2019-03-27T00:03:22.880Z,103098.91
2019-03-27T00:05:52.464Z,103097.08
2019-03-27T00:08:22.087Z,103097.08
2019-03-27T00:10:52.008Z,103100.92
2019-03-27T00:13:22.096Z,103096.56
2019-03-27T00:15:51.674Z,103093.69
2019-03-27T00:18:21.262Z,103094.11
2019-03-27T00:20:51.144Z,103093.81
2019-03-27T00:23:20.790Z,103093.39
2019-03-27T00:25:50.774Z,103091.85
2019-03-27T00:28:20.358Z,103090.16
2019-03-27T00:30:50.073Z,103080.81
2019-03-27T00:33:19.945Z,103084.33
2019-03-27T00:35:49.614Z,103081.98
2019-03-27T00:38:19.230Z,103083.65
2019-03-27T00:40:48.868Z,103082.15
2019-03-27T00:43:18.848Z,103079.67
2019-03-27T00:45:48.449Z,103079.11
2019-03-27T00:48:18.060Z,103077.09
2019-03-27T00:50:47.639Z,103086.34
2019-03-27T00:53:17.606Z,103076.16
2019-03-27T00:55:47.189Z,103078.50
2019-03-27T00:58:16.779Z,103077.95
2019-03-27T01:01:08.864Z,103078.63
2019-03-27T01:03:39.130Z,103081.20
2019-03-27T01:06:08.982Z,103083.30
2019-03-27T01:08:38.952Z,103079.67
2019-03-27T01:11:09.596Z,103081.08
2019-03-27T01:13:39.209Z,103074.33
2019-03-27T01:16:09.514Z,103080.84
2019-03-27T01:18:39.095Z,103081.59
2019-03-27T01:21:09.012Z,103079.34
2019-03-27T01:23:38.673Z,103077.02
2019-03-27T01:26:08.270Z,103082.38
2019-03-27T01:28:38.224Z,103071.86
2019-03-27T01:31:08.162Z,103071.20
2019-03-27T01:33:37.852Z,103073.78
2019-03-27T01:36:07.866Z,103078.27
2019-03-27T01:38:37.496Z,103071.88
2019-03-27T01:41:07.164Z,103066.33
2019-03-27T01:43:36.723Z,103068.06
2019-03-27T01:46:07.030Z,103068.52
2019-03-27T01:48:37.038Z,103073.50
2019-03-27T01:51:07.264Z,103065.84
2019-03-27T01:53:39.942Z,103066.33
2019-03-27T01:56:09.542Z,103066.33
2019-03-27T01:58:39.163Z,103064.05
2019-03-27T02:01:08.772Z,103067.11
2019-03-27T02:03:38.684Z,103067.41
2019-03-27T02:06:08.654Z,103073.20
2019-03-27T02:08:38.257Z,103070.55
2019-03-27T02:11:07.909Z,103078.78
2019-03-27T02:13:37.848Z,103073.23
2019-03-27T02:16:07.908Z,103070.96
2019-03-27T02:18:37.774Z,103065.30
2019-03-27T02:21:07.804Z,103064.55
2019-03-27T02:23:37.506Z,103066.19
2019-03-27T02:26:07.117Z,103061.41
2019-03-27T02:28:37.025Z,103058.16
2019-03-27T02:31:06.671Z,103061.28
2019-03-27T02:33:36.566Z,103057.84
2019-03-27T02:36:06.633Z,103056.59
2019-03-27T02:38:36.221Z,103058.34
2019-03-27T02:41:05.864Z,103054.93
2019-03-27T02:43:35.608Z,103058.44
2019-03-27T02:46:05.573Z,103057.28
2019-03-27T02:48:35.196Z,103052.23
2019-03-27T02:51:04.845Z,103053.08
2019-03-27T02:53:34.869Z,103059.75
2019-03-27T02:56:04.448Z,103059.47
2019-03-27T02:58:34.685Z,103057.98
2019-03-27T03:01:04.649Z,103055.27
2019-03-27T03:03:34.263Z,103055.47
2019-03-27T03:06:03.894Z,103060.60
2019-03-27T03:08:34.153Z,103066.56
2019-03-27T03:11:04.471Z,103066.20
2019-03-27T03:13:34.139Z,103065.06
2019-03-27T03:16:03.933Z,103065.64
2019-03-27T03:18:33.955Z,103064.68
2019-03-27T03:21:03.533Z,103064.15
2019-03-27T03:23:33.554Z,103066.81
2019-03-27T03:26:03.169Z,103062.23
2019-03-27T03:28:32.748Z,103064.89
2019-03-27T03:31:02.825Z,103068.60
2019-03-27T03:33:32.469Z,103069.58
2019-03-27T03:36:02.122Z,103065.35
2019-03-27T03:38:31.740Z,103069.75
2019-03-27T03:41:02.211Z,103064.59
2019-03-27T03:43:31.805Z,103063.91
2019-03-27T03:46:01.385Z,103065.25
2019-03-27T03:48:31.064Z,103072.48
2019-03-27T03:51:01.417Z,103069.63
2019-03-27T03:53:31.377Z,103077.23
2019-03-27T03:56:01.662Z,103073.14
2019-03-27T03:58:32.697Z,103069.89
2019-03-27T04:01:02.834Z,103071.23
2019-03-27T04:03:35.051Z,103068.63
2019-03-27T04:06:05.052Z,103073.87
2019-03-27T04:08:35.098Z,103077.42
2019-03-27T04:11:04.703Z,103078.08
2019-03-27T04:13:34.890Z,103078.73
2019-03-27T04:16:04.453Z,103077.42
2019-03-27T04:18:34.253Z,103073.22
2019-03-27T04:21:03.828Z,103080.09
2019-03-27T04:23:33.390Z,103069.95
2019-03-27T04:26:09.788Z,103070.73
2019-03-27T04:28:34.597Z,103065.20
2019-03-27T04:31:04.204Z,103066.92
2019-03-27T04:33:33.825Z,103074.34
2019-03-27T04:36:04.054Z,103076.28
2019-03-27T04:38:33.639Z,103078.78
2019-03-27T04:41:03.349Z,103082.00
2019-03-27T04:43:32.938Z,103088.67
2019-03-27T04:46:02.635Z,103085.73
2019-03-27T04:48:32.185Z,103097.07
2019-03-27T04:51:02.131Z,103093.64
2019-03-27T04:53:31.756Z,103098.24
2019-03-27T04:56:01.652Z,103097.09
2019-03-27T04:58:31.232Z,103100.72
2019-03-27T05:01:00.812Z,103097.11
2019-03-27T05:03:30.725Z,103099.78
2019-03-27T05:06:00.324Z,103104.36
2019-03-27T05:08:29.898Z,103109.30
2019-03-27T05:10:59.784Z,103109.39
2019-03-27T05:13:29.401Z,103107.78
2019-03-27T05:15:59.052Z,103099.78
2019-03-27T05:18:28.707Z,103101.61
2019-03-27T05:20:58.286Z,103101.79
2019-03-27T05:23:28.591Z,103099.97
2019-03-27T05:25:58.131Z,103105.30
2019-03-27T05:28:27.680Z,103109.70
2019-03-27T05:30:57.282Z,103117.13
2019-03-27T05:33:26.882Z,103127.04
2019-03-27T05:35:56.839Z,103129.13
2019-03-27T05:38:26.836Z,103131.04
2019-03-27T05:40:56.378Z,103133.31
2019-03-27T05:43:26.088Z,103130.55
2019-03-27T05:45:55.730Z,103134.38
2019-03-27T05:48:25.323Z,103140.73
2019-03-27T05:50:55.267Z,103135.89
2019-03-27T05:53:25.226Z,103138.07
2019-03-27T05:55:55.626Z,103134.95
2019-03-27T05:58:25.731Z,103140.16
2019-03-27T06:00:55.677Z,103136.16
2019-03-27T06:03:25.284Z,103138.55
2019-03-27T06:05:54.928Z,103138.64
2019-03-27T06:08:25.201Z,103145.50
2019-03-27T06:10:55.124Z,103142.07
2019-03-27T06:13:24.821Z,103134.38
2019-03-27T06:15:54.359Z,103140.95
2019-03-27T06:18:24.445Z,103139.80
2019-03-27T06:20:54.033Z,103141.31
2019-03-27T06:23:23.633Z,103142.06
2019-03-27T06:25:53.258Z,103141.31
2019-03-27T06:28:22.846Z,103138.37
2019-03-27T06:30:52.441Z,103133.52
2019-03-27T06:33:22.039Z,103142.64
2019-03-27T06:35:51.632Z,103135.97
2019-03-27T06:38:21.251Z,103141.22
2019-03-27T06:40:50.879Z,103138.84
2019-03-27T06:43:21.129Z,103139.95
2019-03-27T06:45:50.714Z,103133.48
2019-03-27T06:48:26.094Z,103143.41
2019-03-27T06:50:51.965Z,103137.27
2019-03-27T06:53:21.685Z,103140.70
2019-03-27T06:55:51.261Z,103140.10
2019-03-27T06:58:20.831Z,103132.64
2019-03-27T07:00:50.729Z,103136.40
2019-03-27T07:03:20.635Z,103147.94
2019-03-27T07:05:50.575Z,103146.05
2019-03-27T07:08:20.203Z,103146.41
2019-03-27T07:10:49.793Z,103146.22
2019-03-27T07:13:19.725Z,103147.20
2019-03-27T07:15:49.321Z,103152.11
2019-03-27T07:18:18.919Z,103155.44
2019-03-27T07:20:48.930Z,103153.22
2019-03-27T07:23:18.898Z,103157.31
2019-03-27T07:25:48.791Z,103159.94
2019-03-27T07:28:18.378Z,103153.70
2019-03-27T07:30:48.761Z,103159.05
2019-03-27T07:33:18.351Z,103163.55
2019-03-27T07:35:48.256Z,103170.55
2019-03-27T07:38:18.163Z,103170.20
2019-03-27T07:40:47.821Z,103172.45
2019-03-27T07:43:17.786Z,103177.14
2019-03-27T07:45:47.423Z,103174.58
2019-03-27T07:48:17.042Z,103165.92
2019-03-27T07:50:48.388Z,103166.09
2019-03-27T07:53:17.922Z,103172.59
2019-03-27T07:55:47.519Z,103170.84
2019-03-27T07:58:17.480Z,103172.90
2019-03-27T08:00:48.032Z,103175.93
2019-03-27T08:03:18.143Z,103183.30
2019-03-27T08:05:47.868Z,103189.29
2019-03-27T08:08:17.473Z,103189.41
2019-03-27T08:10:49.311Z,103188.91
2019-03-27T08:13:18.935Z,103189.90
2019-03-27T08:15:48.540Z,103193.31
2019-03-27T08:18:18.195Z,103190.14
2019-03-27T08:20:48.318Z,103190.54
2019-03-27T08:23:18.285Z,103190.03
2019-03-27T08:25:47.913Z,103178.54
2019-03-27T08:28:17.808Z,103178.54
2019-03-27T08:30:47.714Z,103191.00
2019-03-27T08:33:17.694Z,103180.27
2019-03-27T08:35:47.345Z,103190.76
2019-03-27T08:38:18.229Z,103195.98
2019-03-27T08:40:47.799Z,103197.11
2019-03-27T08:43:21.572Z,103197.11
2019-03-27T08:45:49.542Z,103190.27
2019-03-27T08:48:19.167Z,103193.88
2019-03-27T08:50:49.051Z,103185.80
2019-03-27T08:53:19.890Z,103187.08
2019-03-27T08:55:49.811Z,103187.08
2019-03-27T08:58:19.385Z,103185.34
2019-03-27T09:00:50.808Z,103187.92
2019-03-27T09:03:20.721Z,103186.89
2019-03-27T09:05:51.072Z,103187.17
2019-03-27T09:08:20.985Z,103188.47
2019-03-27T09:10:51.654Z,103188.14
2019-03-27T09:13:21.543Z,103181.28
2019-03-27T09:15:51.437Z,103185.36
2019-03-27T09:18:21.306Z,103190.94
2019-03-27T09:20:50.891Z,103191.22
2019-03-27T09:23:21.064Z,103193.07
2019-03-27T09:25:50.628Z,103183.11
2019-03-27T09:28:20.581Z,103167.55
2019-03-27T09:30:50.134Z,103172.89
2019-03-27T09:33:19.728Z,103178.61
2019-03-27T09:35:49.560Z,103178.41
2019-03-27T09:38:19.418Z,103174.14
2019-03-27T09:40:49.040Z,103185.33
2019-03-27T09:43:18.586Z,103178.35
2019-03-27T09:45:48.507Z,103187.08
2019-03-27T09:48:20.599Z,103181.05
2019-03-27T09:50:50.597Z,103174.70
2019-03-27T09:53:20.447Z,103175.73
2019-03-27T09:55:52.673Z,103175.86
2019-03-27T09:58:22.329Z,103182.48
2019-03-27T10:01:04.879Z,103181.90
2019-03-27T10:03:34.494Z,103181.30
2019-03-27T10:06:04.048Z,103183.63
2019-03-27T10:08:33.664Z,103191.31
2019-03-27T10:11:03.814Z,103176.94
2019-03-27T10:13:33.352Z,103188.34
2019-03-27T10:16:04.354Z,103182.80
2019-03-27T10:18:37.004Z,103176.03
2019-03-27T10:21:06.637Z,103173.36
2019-03-27T10:23:36.609Z,103167.73
2019-03-27T10:26:06.183Z,103170.36
2019-03-27T10:28:38.837Z,103168.05
2019-03-27T10:31:08.775Z,103170.84
2019-03-27T10:33:38.624Z,103176.72
2019-03-27T10:36:08.474Z,103170.73
2019-03-27T10:38:41.546Z,103179.03
2019-03-27T10:41:09.619Z,103181.92
2019-03-27T10:43:39.481Z,103189.92
2019-03-27T10:46:09.065Z,103187.08
2019-03-27T10:48:51.717Z,103188.08
2019-03-27T10:51:13.060Z,103182.84
2019-03-27T10:53:43.849Z,103192.37
2019-03-27T10:56:13.446Z,103182.39
2019-03-27T10:58:44.900Z,103183.63
2019-03-27T11:01:14.779Z,103184.20
2019-03-27T11:03:44.473Z,103186.46
2019-03-27T11:06:15.147Z,103174.80
2019-03-27T11:08:45.461Z,103176.55
2019-03-27T11:11:15.361Z,103180.88
2019-03-27T11:13:44.948Z,103189.08
2019-03-27T11:16:16.469Z,103193.33
2019-03-27T11:18:46.054Z,103187.59
2019-03-27T11:21:15.895Z,103193.25
2019-03-27T11:23:45.536Z,103182.61
2019-03-27T11:26:15.469Z,103189.36
2019-03-27T11:28:45.351Z,103182.39
2019-03-27T11:31:14.955Z,103186.63
2019-03-27T11:33:44.523Z,103194.72
2019-03-27T11:36:14.159Z,103191.77
2019-03-27T11:38:43.743Z,103189.88
2019-03-27T11:41:13.712Z,103188.87
2019-03-27T11:43:54.159Z,103193.38
2019-03-27T11:46:15.053Z,103195.48
2019-03-27T11:48:44.691Z,103199.55
2019-03-27T11:51:15.369Z,103202.39
2019-03-27T11:53:44.943Z,103206.11
2019-03-27T11:56:14.558Z,103206.05
2019-03-27T11:58:44.238Z,103209.51
2019-03-27T12:01:13.803Z,103209.09
2019-03-27T12:03:43.401Z,103203.19
2019-03-27T12:06:13.003Z,103201.53
2019-03-27T12:08:42.921Z,103202.24
2019-03-27T12:11:12.518Z,103205.00
2019-03-27T12:13:42.117Z,103204.34
2019-03-27T12:16:11.654Z,103204.83
2019-03-27T12:18:41.265Z,103197.39
2019-03-27T12:21:10.881Z,103198.23
2019-03-27T12:23:40.525Z,103195.89
2019-03-27T12:26:10.087Z,103196.06
2019-03-27T12:28:39.687Z,103204.39
2019-03-27T12:31:09.301Z,103189.20
2019-03-27T12:33:38.996Z,103191.78
2019-03-27T12:36:09.235Z,103193.88
2019-03-27T12:38:39.182Z,103196.23
2019-03-27T12:41:09.069Z,103194.64
2019-03-27T12:43:38.921Z,103191.95
2019-03-27T12:46:08.509Z,103192.93
2019-03-27T12:48:38.091Z,103190.59
2019-03-27T12:51:13.154Z,103188.88
2019-03-27T12:53:39.572Z,103188.28
2019-03-27T12:56:09.151Z,103181.55
2019-03-27T12:58:39.074Z,103185.77
2019-03-27T13:01:08.945Z,103178.36
2019-03-27T13:03:38.870Z,103179.87
2019-03-27T13:06:08.421Z,103188.12
2019-03-27T13:08:38.033Z,103181.98
2019-03-27T13:11:07.613Z,103187.63
2019-03-27T13:13:37.215Z,103186.65
2019-03-27T13:16:06.817Z,103185.50
2019-03-27T13:18:36.695Z,103189.98
2019-03-27T13:21:06.283Z,103197.70
2019-03-27T13:23:35.869Z,103200.44
2019-03-27T13:26:05.525Z,103196.44
2019-03-27T13:28:48.276Z,103198.44
2019-03-27T13:31:07.290Z,103190.27
2019-03-27T13:33:37.177Z,103192.56
2019-03-27T13:36:08.533Z,103200.58
2019-03-27T13:38:38.081Z,103194.33
2019-03-27T13:41:07.985Z,103194.12
2019-03-27T13:43:37.571Z,103189.27
2019-03-27T13:46:07.159Z,103184.69
2019-03-27T13:48:37.106Z,103177.66
2019-03-27T13:51:06.675Z,103181.31
2019-03-27T13:53:36.549Z,103176.13
2019-03-27T13:56:06.113Z,103173.77
2019-03-27T13:58:35.671Z,103181.53
2019-03-27T14:01:08.648Z,103174.64
2019-03-27T14:03:36.973Z,103173.78
2019-03-27T14:06:07.158Z,103173.61
2019-03-27T14:08:36.748Z,103176.53
2019-03-27T14:11:06.608Z,103174.14
2019-03-27T14:13:36.219Z,103184.02
2019-03-27T14:16:06.063Z,103174.58
2019-03-27T14:18:35.656Z,103179.98
2019-03-27T14:21:05.222Z,103180.13
2019-03-27T14:23:34.809Z,103177.86
2019-03-27T14:26:05.491Z,103180.06
2019-03-27T14:28:35.141Z,103172.67
2019-03-27T14:31:05.253Z,103168.33
2019-03-27T14:33:37.104Z,103165.84
2019-03-27T14:36:06.991Z,103166.92
2019-03-27T14:38:36.875Z,103166.45
2019-03-27T14:41:06.811Z,103166.66
2019-03-27T14:43:36.644Z,103163.38
2019-03-27T14:46:06.816Z,103168.40
2019-03-27T14:48:36.445Z,103161.34
2019-03-27T14:51:06.400Z,103163.86
2019-03-27T14:53:35.988Z,103165.03
2019-03-27T14:56:05.913Z,103169.89
2019-03-27T14:58:35.489Z,103163.64
2019-03-27T15:01:05.352Z,103169.52
2019-03-27T15:03:34.950Z,103172.19
2019-03-27T15:06:04.935Z,103175.71
2019-03-27T15:08:34.838Z,103168.16
2019-03-27T15:11:04.476Z,103169.09
2019-03-27T15:13:34.064Z,103162.95
2019-03-27T15:16:03.647Z,103163.70
2019-03-27T15:18:33.287Z,103164.42
2019-03-27T15:21:02.932Z,103165.84
2019-03-27T15:23:32.503Z,103153.77
2019-03-27T15:26:02.111Z,103169.61
2019-03-27T15:28:31.754Z,103164.63
2019-03-27T15:31:01.600Z,103160.99
2019-03-27T15:33:31.268Z,103169.89
2019-03-27T15:36:00.863Z,103167.13
2019-03-27T15:38:30.460Z,103171.06
2019-03-27T15:41:00.026Z,103162.37
2019-03-27T15:43:29.915Z,103159.73
2019-03-27T15:45:59.787Z,103160.15
2019-03-27T15:48:29.663Z,103157.14
2019-03-27T15:50:59.534Z,103162.88
2019-03-27T15:53:29.200Z,103158.37
2019-03-27T15:55:59.177Z,103156.77
2019-03-27T15:58:28.746Z,103155.78
2019-03-27T16:00:58.676Z,103155.83
2019-03-27T16:03:28.240Z,103159.02
2019-03-27T16:05:57.866Z,103165.03
2019-03-27T16:08:27.605Z,103164.30
2019-03-27T16:10:57.512Z,103163.18
2019-03-27T16:13:27.367Z,103163.89
2019-03-27T16:15:56.944Z,103164.86
2019-03-27T16:18:27.381Z,103165.32
2019-03-27T16:20:57.014Z,103166.11
2019-03-27T16:23:26.580Z,103166.63
2019-03-27T16:25:56.252Z,103166.01
2019-03-27T16:28:25.835Z,103168.77
2019-03-27T16:30:55.649Z,103174.02
2019-03-27T16:33:25.738Z,103173.91
2019-03-27T16:35:55.323Z,103180.72
2019-03-27T16:38:24.977Z,103178.45
2019-03-27T16:40:54.588Z,103186.94
2019-03-27T16:43:24.181Z,103187.55
2019-03-27T16:45:53.874Z,103193.00
2019-03-27T16:48:23.496Z,103203.03
2019-03-27T16:50:53.162Z,103195.80
2019-03-27T16:53:22.744Z,103212.95
2019-03-27T16:55:52.322Z,103209.65
2019-03-27T16:58:22.087Z,103209.30
2019-03-27T17:00:51.644Z,103209.77
2019-03-27T17:03:21.230Z,103211.89
2019-03-27T17:05:54.283Z,103211.31
2019-03-27T17:08:22.120Z,103210.70
2019-03-27T17:10:51.686Z,103213.84
2019-03-27T17:13:21.268Z,103216.25
2019-03-27T17:15:51.185Z,103215.36
2019-03-27T17:18:21.152Z,103208.89
2019-03-27T17:20:50.808Z,103216.54
2019-03-27T17:23:20.408Z,103210.41
2019-03-27T17:25:50.099Z,103209.95
2019-03-27T17:28:20.094Z,103207.03
2019-03-27T17:30:49.880Z,103212.38
2019-03-27T17:33:19.468Z,103206.95
2019-03-27T17:35:49.384Z,103209.31
2019-03-27T17:38:18.980Z,103209.59
2019-03-27T17:40:48.548Z,103212.72
2019-03-27T17:43:18.416Z,103213.02
2019-03-27T17:45:48.019Z,103208.30
2019-03-27T17:48:17.568Z,103216.63
2019-03-27T17:50:47.184Z,103212.20
2019-03-27T17:53:16.769Z,103212.11
2019-03-27T17:55:46.661Z,103208.95
2019-03-27T17:58:16.514Z,103216.84
2019-03-27T18:00:48.617Z,103220.88
2019-03-27T18:03:18.267Z,103220.77
2019-03-27T18:05:48.057Z,103225.46
2019-03-27T18:08:17.799Z,103220.98
2019-03-27T18:10:47.372Z,103223.81
2019-03-27T18:13:17.276Z,103231.73
2019-03-27T18:15:46.866Z,103229.31
2019-03-27T18:18:16.450Z,103230.53
2019-03-27T18:20:46.077Z,103226.63
2019-03-27T18:23:15.954Z,103226.75
2019-03-27T18:25:45.602Z,103224.06
2019-03-27T18:28:15.483Z,103240.42
2019-03-27T18:30:45.096Z,103241.88
2019-03-27T18:33:14.819Z,103242.25
2019-03-27T18:35:44.638Z,103243.37
2019-03-27T18:38:14.811Z,103243.09
2019-03-27T18:40:46.700Z,103240.22
2019-03-27T18:43:16.370Z,103244.48
2019-03-27T18:45:46.016Z,103247.55
2019-03-27T18:48:15.610Z,103242.41
2019-03-27T18:50:46.456Z,103243.78
2019-03-27T18:53:15.996Z,103242.30
2019-03-27T18:55:45.642Z,103248.31
2019-03-27T18:58:15.259Z,103247.68
2019-03-27T19:00:45.641Z,103249.41
2019-03-27T19:03:15.247Z,103255.26
2019-03-27T19:05:45.222Z,103259.89
2019-03-27T19:08:14.771Z,103256.61
2019-03-27T19:10:44.577Z,103253.82
2019-03-27T19:13:14.176Z,103261.38
2019-03-27T19:15:44.090Z,103268.21
2019-03-27T19:18:13.739Z,103264.30
2019-03-27T19:20:43.311Z,103271.64
2019-03-27T19:23:12.951Z,103271.41
2019-03-27T19:25:42.512Z,103271.41
2019-03-27T19:28:12.134Z,103273.72
2019-03-27T19:30:41.724Z,103273.72
2019-03-27T19:33:11.414Z,103285.08
2019-03-27T19:35:41.356Z,103280.17
2019-03-27T19:38:11.256Z,103280.17
2019-03-27T19:40:41.146Z,103282.47
2019-03-27T19:43:10.786Z,103282.58
2019-03-27T19:45:40.371Z,103279.94
2019-03-27T19:48:11.493Z,103279.94
2019-03-27T19:50:41.095Z,103289.04
2019-03-27T19:53:10.756Z,103292.97
2019-03-27T19:55:40.387Z,103291.98
2019-03-27T19:58:10.110Z,103286.48
2019-03-27T20:00:39.777Z,103287.83
2019-03-27T20:03:09.338Z,103283.30
2019-03-27T20:05:39.221Z,103283.30
2019-03-27T20:08:08.855Z,103286.25
2019-03-27T20:10:38.430Z,103284.25
2019-03-27T20:13:08.327Z,103278.12
2019-03-27T20:15:37.948Z,103287.13
2019-03-27T20:18:08.186Z,103277.55
2019-03-27T20:20:38.119Z,103290.30
2019-03-27T20:23:14.944Z,103292.55
2019-03-27T20:25:39.424Z,103291.55
2019-03-27T20:28:09.080Z,103292.79
2019-03-27T20:30:38.656Z,103288.83
2019-03-27T20:33:08.839Z,103287.84
2019-03-27T20:35:38.458Z,103293.14
2019-03-27T20:38:08.494Z,103294.09
2019-03-27T20:40:38.094Z,103293.58
2019-03-27T20:43:07.760Z,103298.17
2019-03-27T20:45:37.365Z,103304.66
2019-03-27T20:48:09.581Z,103300.36
2019-03-27T20:50:39.614Z,103302.05
2019-03-27T20:53:09.268Z,103302.88
2019-03-27T20:55:39.255Z,103289.19
2019-03-27T20:58:08.996Z,103291.67
2019-03-27T21:00:38.650Z,103293.19
2019-03-27T21:03:08.384Z,103302.22
2019-03-27T21:05:38.517Z,103301.23
2019-03-27T21:08:08.593Z,103297.38
2019-03-27T21:10:38.191Z,103300.80
2019-03-27T21:13:08.096Z,103301.02
2019-03-27T21:15:38.827Z,103303.34
2019-03-27T21:18:11.053Z,103307.90
2019-03-27T21:20:40.990Z,103298.63
2019-03-27T21:23:10.599Z,103307.80
2019-03-27T21:25:40.937Z,103314.67
2019-03-27T21:28:10.614Z,103312.06
2019-03-27T21:30:40.224Z,103311.85
2019-03-27T21:33:10.537Z,103316.97
2019-03-27T21:35:40.450Z,103316.89
2019-03-27T21:38:10.398Z,103314.20
2019-03-27T21:40:40.052Z,103318.30
2019-03-27T21:43:10.076Z,103315.97
2019-03-27T21:45:39.681Z,103317.06
2019-03-27T21:48:09.363Z,103321.59
2019-03-27T21:50:38.991Z,103318.63
2019-03-27T21:53:08.712Z,103320.11
2019-03-27T21:55:42.892Z,103320.77
2019-03-27T21:58:10.217Z,103321.47
2019-03-27T22:00:40.807Z,103322.27
2019-03-27T22:03:10.741Z,103325.30
2019-03-27T22:05:40.405Z,103319.59
2019-03-27T22:08:10.555Z,103315.03
2019-03-27T22:10:40.220Z,103325.53
2019-03-27T22:13:10.375Z,103326.23
2019-03-27T22:15:40.001Z,103332.78
2019-03-27T22:18:10.184Z,103331.09
2019-03-27T22:20:39.963Z,103333.98
2019-03-27T22:23:10.155Z,103335.50
2019-03-27T22:25:39.757Z,103336.66
2019-03-27T22:28:09.420Z,103328.22
2019-03-27T22:30:39.162Z,103332.59
2019-03-27T22:33:09.184Z,103331.16
2019-03-27T22:35:38.854Z,103344.92
2019-03-27T22:38:08.641Z,103337.06
2019-03-27T22:40:39.020Z,103341.06
2019-03-27T22:43:08.644Z,103342.41
2019-03-27T22:45:38.285Z,103347.38
2019-03-27T22:48:08.688Z,103344.98
2019-03-27T22:50:38.342Z,103346.31
2019-03-27T22:53:08.215Z,103349.19
2019-03-27T22:55:48.884Z,103346.31
2019-03-27T22:58:09.237Z,103351.63
2019-03-27T23:00:45.940Z,103341.12
2019-03-27T23:03:18.587Z,103337.45
2019-03-27T23:05:47.940Z,103338.44
2019-03-27T23:08:17.620Z,103335.96
2019-03-27T23:10:47.641Z,103344.99
2019-03-27T23:13:17.321Z,103340.77
2019-03-27T23:15:47.201Z,103335.02
2019-03-27T23:18:16.845Z,103339.94
2019-03-27T23:20:47.165Z,103335.96
2019-03-27T23:23:17.214Z,103333.77
2019-03-27T23:25:46.925Z,103332.70
2019-03-27T23:28:16.698Z,103333.92
2019-03-27T23:30:46.656Z,103331.59
2019-03-27T23:33:16.305Z,103328.17
2019-03-27T23:35:46.304Z,103333.23
2019-03-27T23:38:15.932Z,103339.72
2019-03-27T23:40:45.935Z,103336.90
2019-03-27T23:43:15.538Z,103330.61
2019-03-27T23:45:45.214Z,103329.66
2019-03-27T23:48:15.407Z,103337.10
2019-03-27T23:50:45.886Z,103333.53
2019-03-27T23:53:15.591Z,103343.05
2019-03-27T23:55:45.287Z,103340.27
2019-03-27T23:58:15.305Z,103339.43
